sensor_id;sensor_type;location;lat;lon;timestamp;temperature;humidity
51637;DHT22;37713;53.254;6.460;2024-03-17T00:01:02;3.50;99.90
51637;DHT22;37713;53.254;6.460;2024-03-17T00:03:28;3.40;99.90
51637;DHT22;37713;53.254;6.460;2024-03-17T00:05:59;3.40;99.90
51637;DHT22;37713;53.254;6.460;2024-03-17T00:08:25;3.40;99.90
51637;DHT22;37713;53.254;6.460;2024-03-17T00:10:54;3.40;99.90
51637;DHT22;37713;53.254;6.460;2024-03-17T00:13:20;3.30;99.90
51637;DHT22;37713;53.254;6.460;2024-03-17T00:15:48;3.30;99.90
51637;DHT22;37713;53.254;6.460;2024-03-17T00:18:14;3.30;99.90
51637;DHT22;37713;53.254;6.460;2024-03-17T00:20:40;3.30;99.90
51637;DHT22;37713;53.254;6.460;2024-03-17T00:23:06;3.30;99.90
51637;DHT22;37713;53.254;6.460;2024-03-17T00:25:32;3.30;99.90
51637;DHT22;37713;53.254;6.460;2024-03-17T00:28:00;3.20;99.90
51637;DHT22;37713;53.254;6.460;2024-03-17T00:30:26;3.20;99.90
51637;DHT22;37713;53.254;6.460;2024-03-17T00:32:52;3.20;99.90
51637;DHT22;37713;53.254;6.460;2024-03-17T00:35:18;3.20;99.90
51637;DHT22;37713;53.254;6.460;2024-03-17T00:37:50;3.20;99.90
51637;DHT22;37713;53.254;6.460;2024-03-17T00:40:20;3.20;99.90
51637;DHT22;37713;53.254;6.460;2024-03-17T00:42:46;3.10;99.90
51637;DHT22;37713;53.254;6.460;2024-03-17T00:45:13;3.10;99.90
51637;DHT22;37713;53.254;6.460;2024-03-17T00:47:39;3.10;99.90
51637;DHT22;37713;53.254;6.460;2024-03-17T00:50:05;3.10;99.90
51637;DHT22;37713;53.254;6.460;2024-03-17T00:52:34;3.10;99.90
51637;DHT22;37713;53.254;6.460;2024-03-17T00:55:01;3.30;99.90
51637;DHT22;37713;53.254;6.460;2024-03-17T00:57:27;3.00;99.90
51637;DHT22;37713;53.254;6.460;2024-03-17T00:59:53;3.00;99.90
51637;DHT22;37713;53.254;6.460;2024-03-17T01:02:19;3.00;99.90
51637;DHT22;37713;53.254;6.460;2024-03-17T01:04:46;2.90;99.90
51637;DHT22;37713;53.254;6.460;2024-03-17T01:07:12;2.90;99.90
51637;DHT22;37713;53.254;6.460;2024-03-17T01:09:38;2.90;99.90
51637;DHT22;37713;53.254;6.460;2024-03-17T01:12:04;2.80;99.90
51637;DHT22;37713;53.254;6.460;2024-03-17T01:14:31;2.80;99.90
51637;DHT22;37713;53.254;6.460;2024-03-17T01:16:58;2.70;99.90
51637;DHT22;37713;53.254;6.460;2024-03-17T01:19:23;2.70;99.90
51637;DHT22;37713;53.254;6.460;2024-03-17T01:21:51;2.70;99.90
51637;DHT22;37713;53.254;6.460;2024-03-17T01:24:17;2.70;99.90
51637;DHT22;37713;53.254;6.460;2024-03-17T01:26:43;2.70;99.90
51637;DHT22;37713;53.254;6.460;2024-03-17T01:29:09;2.70;99.90
51637;DHT22;37713;53.254;6.460;2024-03-17T01:31:35;2.70;99.90
51637;DHT22;37713;53.254;6.460;2024-03-17T01:34:01;2.60;99.90
51637;DHT22;37713;53.254;6.460;2024-03-17T01:36:26;2.60;99.90
51637;DHT22;37713;53.254;6.460;2024-03-17T01:38:52;2.60;99.90
51637;DHT22;37713;53.254;6.460;2024-03-17T01:41:18;2.60;99.90
51637;DHT22;37713;53.254;6.460;2024-03-17T01:43:44;2.60;99.90
51637;DHT22;37713;53.254;6.460;2024-03-17T01:46:14;2.60;99.90
51637;DHT22;37713;53.254;6.460;2024-03-17T01:48:40;2.60;99.90
51637;DHT22;37713;53.254;6.460;2024-03-17T01:51:07;2.50;99.90
51637;DHT22;37713;53.254;6.460;2024-03-17T01:53:35;2.50;99.90
51637;DHT22;37713;53.254;6.460;2024-03-17T01:56:01;2.50;99.90
51637;DHT22;37713;53.254;6.460;2024-03-17T01:58:30;2.40;99.90
51637;DHT22;37713;53.254;6.460;2024-03-17T02:00:57;2.40;99.90
51637;DHT22;37713;53.254;6.460;2024-03-17T02:03:22;2.40;99.90
51637;DHT22;37713;53.254;6.460;2024-03-17T02:05:49;2.40;99.90
51637;DHT22;37713;53.254;6.460;2024-03-17T02:08:16;2.40;99.90
51637;DHT22;37713;53.254;6.460;2024-03-17T02:10:42;2.40;99.90
51637;DHT22;37713;53.254;6.460;2024-03-17T02:13:07;2.40;99.90
51637;DHT22;37713;53.254;6.460;2024-03-17T02:15:33;2.40;99.90
51637;DHT22;37713;53.254;6.460;2024-03-17T02:17:59;2.40;99.90
51637;DHT22;37713;53.254;6.460;2024-03-17T02:20:25;2.40;99.90
51637;DHT22;37713;53.254;6.460;2024-03-17T02:23:11;2.40;99.90
51637;DHT22;37713;53.254;6.460;2024-03-17T02:25:37;2.40;99.90
51637;DHT22;37713;53.254;6.460;2024-03-17T02:28:03;2.30;99.90
51637;DHT22;37713;53.254;6.460;2024-03-17T02:30:30;2.40;99.90
51637;DHT22;37713;53.254;6.460;2024-03-17T02:32:56;2.40;99.90
51637;DHT22;37713;53.254;6.460;2024-03-17T02:35:23;2.30;99.90
51637;DHT22;37713;53.254;6.460;2024-03-17T02:37:49;2.30;99.90
51637;DHT22;37713;53.254;6.460;2024-03-17T02:40:15;2.40;99.90
51637;DHT22;37713;53.254;6.460;2024-03-17T02:42:42;2.30;99.90
51637;DHT22;37713;53.254;6.460;2024-03-17T02:45:10;2.30;99.90
51637;DHT22;37713;53.254;6.460;2024-03-17T02:47:37;2.40;99.90
51637;DHT22;37713;53.254;6.460;2024-03-17T02:50:04;2.40;99.90
51637;DHT22;37713;53.254;6.460;2024-03-17T02:52:30;2.40;99.90
51637;DHT22;37713;53.254;6.460;2024-03-17T02:54:56;2.50;99.90
51637;DHT22;37713;53.254;6.460;2024-03-17T02:57:22;2.50;99.90
51637;DHT22;37713;53.254;6.460;2024-03-17T02:59:50;2.60;99.90
51637;DHT22;37713;53.254;6.460;2024-03-17T03:02:17;2.70;99.90
51637;DHT22;37713;53.254;6.460;2024-03-17T03:04:43;2.70;99.90
51637;DHT22;37713;53.254;6.460;2024-03-17T03:07:09;2.80;99.90
51637;DHT22;37713;53.254;6.460;2024-03-17T03:09:35;2.90;99.90
51637;DHT22;37713;53.254;6.460;2024-03-17T03:12:01;2.90;99.90
51637;DHT22;37713;53.254;6.460;2024-03-17T03:14:30;3.00;99.90
51637;DHT22;37713;53.254;6.460;2024-03-17T03:16:57;3.00;99.90
51637;DHT22;37713;53.254;6.460;2024-03-17T03:19:23;3.10;99.90
51637;DHT22;37713;53.254;6.460;2024-03-17T03:21:50;3.10;99.90
51637;DHT22;37713;53.254;6.460;2024-03-17T03:24:16;3.10;99.90
51637;DHT22;37713;53.254;6.460;2024-03-17T03:26:43;3.20;99.90
51637;DHT22;37713;53.254;6.460;2024-03-17T03:29:12;3.20;99.90
51637;DHT22;37713;53.254;6.460;2024-03-17T03:31:40;3.30;99.90
51637;DHT22;37713;53.254;6.460;2024-03-17T03:34:06;3.30;99.90
51637;DHT22;37713;53.254;6.460;2024-03-17T03:36:35;3.30;99.90
51637;DHT22;37713;53.254;6.460;2024-03-17T03:39:02;3.30;99.90
51637;DHT22;37713;53.254;6.460;2024-03-17T03:41:31;3.40;99.90
51637;DHT22;37713;53.254;6.460;2024-03-17T03:44:01;3.40;99.90
51637;DHT22;37713;53.254;6.460;2024-03-17T03:46:26;3.40;99.90
51637;DHT22;37713;53.254;6.460;2024-03-17T03:48:52;3.50;99.90
51637;DHT22;37713;53.254;6.460;2024-03-17T03:51:18;3.50;99.90
51637;DHT22;37713;53.254;6.460;2024-03-17T03:53:44;3.50;99.90
51637;DHT22;37713;53.254;6.460;2024-03-17T03:56:10;3.50;99.90
51637;DHT22;37713;53.254;6.460;2024-03-17T03:58:37;3.60;99.90
51637;DHT22;37713;53.254;6.460;2024-03-17T04:01:04;3.60;99.90
51637;DHT22;37713;53.254;6.460;2024-03-17T04:03:31;3.60;99.90
51637;DHT22;37713;53.254;6.460;2024-03-17T04:06:06;3.70;99.90
51637;DHT22;37713;53.254;6.460;2024-03-17T04:08:33;3.70;99.90
51637;DHT22;37713;53.254;6.460;2024-03-17T04:10:59;3.70;99.90
51637;DHT22;37713;53.254;6.460;2024-03-17T04:13:27;3.70;99.90
51637;DHT22;37713;53.254;6.460;2024-03-17T04:15:55;3.80;99.90
51637;DHT22;37713;53.254;6.460;2024-03-17T04:18:23;3.80;99.90
51637;DHT22;37713;53.254;6.460;2024-03-17T04:20:53;3.80;99.90
51637;DHT22;37713;53.254;6.460;2024-03-17T04:23:20;3.80;99.90
51637;DHT22;37713;53.254;6.460;2024-03-17T04:25:47;3.90;99.90
51637;DHT22;37713;53.254;6.460;2024-03-17T04:28:14;3.90;99.90
51637;DHT22;37713;53.254;6.460;2024-03-17T04:30:40;3.90;99.90
51637;DHT22;37713;53.254;6.460;2024-03-17T04:33:06;3.90;99.90
51637;DHT22;37713;53.254;6.460;2024-03-17T04:35:44;3.90;99.90
51637;DHT22;37713;53.254;6.460;2024-03-17T04:38:10;3.90;99.90
51637;DHT22;37713;53.254;6.460;2024-03-17T04:40:45;3.90;99.90
51637;DHT22;37713;53.254;6.460;2024-03-17T04:43:11;3.90;99.90
51637;DHT22;37713;53.254;6.460;2024-03-17T04:45:37;3.90;99.90
51637;DHT22;37713;53.254;6.460;2024-03-17T04:48:03;4.00;99.90
51637;DHT22;37713;53.254;6.460;2024-03-17T04:50:29;4.00;99.90
51637;DHT22;37713;53.254;6.460;2024-03-17T04:52:59;4.00;99.90
51637;DHT22;37713;53.254;6.460;2024-03-17T04:55:25;4.20;99.90
51637;DHT22;37713;53.254;6.460;2024-03-17T04:57:51;4.00;99.90
51637;DHT22;37713;53.254;6.460;2024-03-17T05:00:17;4.00;99.90
51637;DHT22;37713;53.254;6.460;2024-03-17T05:02:45;4.00;99.90
51637;DHT22;37713;53.254;6.460;2024-03-17T05:05:11;4.10;99.90
51637;DHT22;37713;53.254;6.460;2024-03-17T05:07:37;4.00;99.90
51637;DHT22;37713;53.254;6.460;2024-03-17T05:10:03;4.10;99.90
51637;DHT22;37713;53.254;6.460;2024-03-17T05:12:29;4.00;99.90
51637;DHT22;37713;53.254;6.460;2024-03-17T05:14:55;4.10;99.90
51637;DHT22;37713;53.254;6.460;2024-03-17T05:17:21;4.10;99.90
51637;DHT22;37713;53.254;6.460;2024-03-17T05:19:46;4.00;99.90
51637;DHT22;37713;53.254;6.460;2024-03-17T05:22:12;4.10;99.90
51637;DHT22;37713;53.254;6.460;2024-03-17T05:24:38;4.10;99.90
51637;DHT22;37713;53.254;6.460;2024-03-17T05:27:04;4.10;99.90
51637;DHT22;37713;53.254;6.460;2024-03-17T05:29:30;4.10;99.90
51637;DHT22;37713;53.254;6.460;2024-03-17T05:31:56;4.10;99.90
51637;DHT22;37713;53.254;6.460;2024-03-17T05:34:21;4.10;99.90
51637;DHT22;37713;53.254;6.460;2024-03-17T05:36:50;4.10;99.90
51637;DHT22;37713;53.254;6.460;2024-03-17T05:39:16;4.20;99.90
51637;DHT22;37713;53.254;6.460;2024-03-17T05:41:43;4.10;99.90
51637;DHT22;37713;53.254;6.460;2024-03-17T05:44:09;4.20;99.90
51637;DHT22;37713;53.254;6.460;2024-03-17T05:46:35;4.20;99.90
51637;DHT22;37713;53.254;6.460;2024-03-17T05:49:01;4.20;99.90
51637;DHT22;37713;53.254;6.460;2024-03-17T05:51:29;4.20;99.90
51637;DHT22;37713;53.254;6.460;2024-03-17T05:53:54;4.20;99.90
51637;DHT22;37713;53.254;6.460;2024-03-17T05:56:21;4.20;99.90
51637;DHT22;37713;53.254;6.460;2024-03-17T05:58:48;4.20;99.90
51637;DHT22;37713;53.254;6.460;2024-03-17T06:01:14;4.20;99.90
51637;DHT22;37713;53.254;6.460;2024-03-17T06:03:40;4.20;99.90
51637;DHT22;37713;53.254;6.460;2024-03-17T06:06:07;4.20;99.90
51637;DHT22;37713;53.254;6.460;2024-03-17T06:08:33;4.30;99.90
51637;DHT22;37713;53.254;6.460;2024-03-17T06:10:59;4.50;99.90
51637;DHT22;37713;53.254;6.460;2024-03-17T06:13:29;4.40;99.90
51637;DHT22;37713;53.254;6.460;2024-03-17T06:15:54;4.40;99.90
51637;DHT22;37713;53.254;6.460;2024-03-17T06:18:26;4.50;99.90
51637;DHT22;37713;53.254;6.460;2024-03-17T06:20:52;4.50;99.90
51637;DHT22;37713;53.254;6.460;2024-03-17T06:23:18;4.50;99.90
51637;DHT22;37713;53.254;6.460;2024-03-17T06:25:48;4.70;99.90
51637;DHT22;37713;53.254;6.460;2024-03-17T06:28:15;4.70;99.90
51637;DHT22;37713;53.254;6.460;2024-03-17T06:30:43;4.80;99.90
51637;DHT22;37713;53.254;6.460;2024-03-17T06:33:13;4.80;99.90
51637;DHT22;37713;53.254;6.460;2024-03-17T06:35:39;4.90;99.90
51637;DHT22;37713;53.254;6.460;2024-03-17T06:38:06;4.80;99.90
51637;DHT22;37713;53.254;6.460;2024-03-17T06:40:38;5.00;99.90
51637;DHT22;37713;53.254;6.460;2024-03-17T06:43:05;5.00;99.90
51637;DHT22;37713;53.254;6.460;2024-03-17T06:45:32;5.10;99.90
51637;DHT22;37713;53.254;6.460;2024-03-17T06:47:58;5.20;99.90
51637;DHT22;37713;53.254;6.460;2024-03-17T06:50:24;5.30;99.90
51637;DHT22;37713;53.254;6.460;2024-03-17T06:52:50;5.30;99.90
51637;DHT22;37713;53.254;6.460;2024-03-17T06:55:18;5.40;99.90
51637;DHT22;37713;53.254;6.460;2024-03-17T06:57:46;5.50;99.90
51637;DHT22;37713;53.254;6.460;2024-03-17T07:00:13;5.60;99.90
51637;DHT22;37713;53.254;6.460;2024-03-17T07:02:48;5.60;99.90
51637;DHT22;37713;53.254;6.460;2024-03-17T07:05:15;5.70;99.90
51637;DHT22;37713;53.254;6.460;2024-03-17T07:07:41;5.80;99.90
51637;DHT22;37713;53.254;6.460;2024-03-17T07:10:08;5.90;99.90
51637;DHT22;37713;53.254;6.460;2024-03-17T07:12:34;6.00;99.90
51637;DHT22;37713;53.254;6.460;2024-03-17T07:15:00;6.00;99.90
51637;DHT22;37713;53.254;6.460;2024-03-17T07:17:26;6.10;99.90
51637;DHT22;37713;53.254;6.460;2024-03-17T07:19:52;6.10;99.90
51637;DHT22;37713;53.254;6.460;2024-03-17T07:22:17;6.20;99.90
51637;DHT22;37713;53.254;6.460;2024-03-17T07:24:43;6.20;99.90
51637;DHT22;37713;53.254;6.460;2024-03-17T07:27:10;6.20;99.90
51637;DHT22;37713;53.254;6.460;2024-03-17T07:29:40;6.30;99.90
51637;DHT22;37713;53.254;6.460;2024-03-17T07:32:06;6.30;99.90
51637;DHT22;37713;53.254;6.460;2024-03-17T07:34:32;6.30;99.90
51637;DHT22;37713;53.254;6.460;2024-03-17T07:36:59;6.40;99.90
51637;DHT22;37713;53.254;6.460;2024-03-17T07:39:29;6.40;99.90
51637;DHT22;37713;53.254;6.460;2024-03-17T07:41:59;6.40;99.90
51637;DHT22;37713;53.254;6.460;2024-03-17T07:44:25;6.50;99.90
51637;DHT22;37713;53.254;6.460;2024-03-17T07:46:54;6.50;99.90
51637;DHT22;37713;53.254;6.460;2024-03-17T07:49:20;6.50;99.90
51637;DHT22;37713;53.254;6.460;2024-03-17T07:51:46;6.50;99.90
51637;DHT22;37713;53.254;6.460;2024-03-17T07:54:15;6.60;99.90
51637;DHT22;37713;53.254;6.460;2024-03-17T07:56:41;6.60;99.90
51637;DHT22;37713;53.254;6.460;2024-03-17T07:59:07;6.60;99.90
51637;DHT22;37713;53.254;6.460;2024-03-17T08:01:38;6.60;99.90
51637;DHT22;37713;53.254;6.460;2024-03-17T08:04:04;6.70;99.90
51637;DHT22;37713;53.254;6.460;2024-03-17T08:06:30;6.70;99.90
51637;DHT22;37713;53.254;6.460;2024-03-17T08:08:56;6.90;99.90
51637;DHT22;37713;53.254;6.460;2024-03-17T08:11:23;6.90;99.90
51637;DHT22;37713;53.254;6.460;2024-03-17T08:13:49;7.00;99.90
51637;DHT22;37713;53.254;6.460;2024-03-17T08:16:15;7.00;99.90
51637;DHT22;37713;53.254;6.460;2024-03-17T08:18:42;7.20;99.90
51637;DHT22;37713;53.254;6.460;2024-03-17T08:21:08;7.30;99.90
51637;DHT22;37713;53.254;6.460;2024-03-17T08:23:35;7.40;99.90
51637;DHT22;37713;53.254;6.460;2024-03-17T08:26:05;7.50;99.90
51637;DHT22;37713;53.254;6.460;2024-03-17T08:28:30;7.60;99.90
51637;DHT22;37713;53.254;6.460;2024-03-17T08:30:58;7.60;99.90
51637;DHT22;37713;53.254;6.460;2024-03-17T08:33:24;7.70;99.90
51637;DHT22;37713;53.254;6.460;2024-03-17T08:35:57;7.80;99.90
51637;DHT22;37713;53.254;6.460;2024-03-17T08:38:24;7.90;99.90
51637;DHT22;37713;53.254;6.460;2024-03-17T08:40:51;7.90;99.90
51637;DHT22;37713;53.254;6.460;2024-03-17T08:43:18;7.90;99.90
51637;DHT22;37713;53.254;6.460;2024-03-17T08:45:44;7.80;99.90
51637;DHT22;37713;53.254;6.460;2024-03-17T08:48:10;7.90;99.90
51637;DHT22;37713;53.254;6.460;2024-03-17T08:50:36;7.80;99.90
51637;DHT22;37713;53.254;6.460;2024-03-17T08:53:02;7.90;99.90
51637;DHT22;37713;53.254;6.460;2024-03-17T08:55:28;8.00;99.90
51637;DHT22;37713;53.254;6.460;2024-03-17T08:57:54;8.00;99.90
51637;DHT22;37713;53.254;6.460;2024-03-17T09:00:20;8.00;99.90
51637;DHT22;37713;53.254;6.460;2024-03-17T09:02:45;8.00;99.90
51637;DHT22;37713;53.254;6.460;2024-03-17T09:05:11;8.10;99.90
51637;DHT22;37713;53.254;6.460;2024-03-17T09:07:40;8.20;99.90
51637;DHT22;37713;53.254;6.460;2024-03-17T09:10:06;8.30;99.90
51637;DHT22;37713;53.254;6.460;2024-03-17T09:12:34;8.40;99.90
51637;DHT22;37713;53.254;6.460;2024-03-17T09:14:59;8.50;99.90
51637;DHT22;37713;53.254;6.460;2024-03-17T09:17:25;8.70;99.90
51637;DHT22;37713;53.254;6.460;2024-03-17T09:19:51;8.70;99.90
51637;DHT22;37713;53.254;6.460;2024-03-17T09:22:17;8.90;99.90
51637;DHT22;37713;53.254;6.460;2024-03-17T09:24:43;9.00;99.90
51637;DHT22;37713;53.254;6.460;2024-03-17T09:27:09;9.10;99.90
51637;DHT22;37713;53.254;6.460;2024-03-17T09:29:36;9.20;99.90
51637;DHT22;37713;53.254;6.460;2024-03-17T09:32:01;9.30;99.90
51637;DHT22;37713;53.254;6.460;2024-03-17T09:34:28;9.30;99.90
51637;DHT22;37713;53.254;6.460;2024-03-17T09:36:53;9.40;99.90
51637;DHT22;37713;53.254;6.460;2024-03-17T09:39:19;9.50;99.90
51637;DHT22;37713;53.254;6.460;2024-03-17T09:41:47;9.70;99.90
51637;DHT22;37713;53.254;6.460;2024-03-17T09:44:13;9.80;99.90
51637;DHT22;37713;53.254;6.460;2024-03-17T09:46:39;9.90;99.90
51637;DHT22;37713;53.254;6.460;2024-03-17T09:49:12;9.90;99.90
51637;DHT22;37713;53.254;6.460;2024-03-17T09:51:40;9.80;99.90
51637;DHT22;37713;53.254;6.460;2024-03-17T09:54:19;9.80;99.90
51637;DHT22;37713;53.254;6.460;2024-03-17T09:56:45;9.70;99.90
51637;DHT22;37713;53.254;6.460;2024-03-17T09:59:11;9.60;99.90
51637;DHT22;37713;53.254;6.460;2024-03-17T10:01:37;9.50;99.90
51637;DHT22;37713;53.254;6.460;2024-03-17T10:04:03;9.50;99.90
51637;DHT22;37713;53.254;6.460;2024-03-17T10:06:30;9.40;99.90
51637;DHT22;37713;53.254;6.460;2024-03-17T10:08:59;9.40;99.90
51637;DHT22;37713;53.254;6.460;2024-03-17T10:11:34;9.40;99.90
51637;DHT22;37713;53.254;6.460;2024-03-17T10:14:05;9.30;99.90
51637;DHT22;37713;53.254;6.460;2024-03-17T10:16:31;9.30;99.90
51637;DHT22;37713;53.254;6.460;2024-03-17T10:19:36;9.30;99.90
51637;DHT22;37713;53.254;6.460;2024-03-17T10:22:05;9.30;99.90
51637;DHT22;37713;53.254;6.460;2024-03-17T10:24:31;9.30;99.90
51637;DHT22;37713;53.254;6.460;2024-03-17T10:26:58;9.40;99.90
51637;DHT22;37713;53.254;6.460;2024-03-17T10:29:35;9.40;99.90
51637;DHT22;37713;53.254;6.460;2024-03-17T10:32:17;9.40;99.90
51637;DHT22;37713;53.254;6.460;2024-03-17T10:34:43;9.40;99.90
51637;DHT22;37713;53.254;6.460;2024-03-17T10:39:39;9.40;99.90
51637;DHT22;37713;53.254;6.460;2024-03-17T10:42:07;9.30;99.90
51637;DHT22;37713;53.254;6.460;2024-03-17T10:44:41;9.30;99.90
51637;DHT22;37713;53.254;6.460;2024-03-17T10:47:24;9.30;99.90
51637;DHT22;37713;53.254;6.460;2024-03-17T10:49:51;9.40;99.90
51637;DHT22;37713;53.254;6.460;2024-03-17T10:52:18;9.40;99.90
51637;DHT22;37713;53.254;6.460;2024-03-17T10:54:49;9.40;99.90
51637;DHT22;37713;53.254;6.460;2024-03-17T11:00:00;9.40;99.90
51637;DHT22;37713;53.254;6.460;2024-03-17T11:02:31;9.40;99.90
51637;DHT22;37713;53.254;6.460;2024-03-17T11:05:07;9.40;99.90
51637;DHT22;37713;53.254;6.460;2024-03-17T11:07:37;9.40;99.90
51637;DHT22;37713;53.254;6.460;2024-03-17T11:10:09;9.40;99.90
51637;DHT22;37713;53.254;6.460;2024-03-17T11:18:40;9.60;99.90
51637;DHT22;37713;53.254;6.460;2024-03-17T11:20:43;9.70;99.90
51637;DHT22;37713;53.254;6.460;2024-03-17T11:23:28;9.70;99.90
51637;DHT22;37713;53.254;6.460;2024-03-17T11:25:55;9.70;99.90
51637;DHT22;37713;53.254;6.460;2024-03-17T11:31:36;9.90;99.90
51637;DHT22;37713;53.254;6.460;2024-03-17T11:34:04;9.90;99.90
51637;DHT22;37713;53.254;6.460;2024-03-17T11:36:39;10.00;99.90
51637;DHT22;37713;53.254;6.460;2024-03-17T11:39:07;10.10;99.90
51637;DHT22;37713;53.254;6.460;2024-03-17T11:41:46;10.10;99.90
51637;DHT22;37713;53.254;6.460;2024-03-17T11:46:53;10.30;99.90
51637;DHT22;37713;53.254;6.460;2024-03-17T11:49:24;10.40;99.90
51637;DHT22;37713;53.254;6.460;2024-03-17T11:51:51;10.40;99.90
51637;DHT22;37713;53.254;6.460;2024-03-17T11:54:24;10.50;99.90
51637;DHT22;37713;53.254;6.460;2024-03-17T11:56:53;10.50;99.90
51637;DHT22;37713;53.254;6.460;2024-03-17T11:59:19;10.50;99.90
51637;DHT22;37713;53.254;6.460;2024-03-17T12:01:46;10.60;99.90
51637;DHT22;37713;53.254;6.460;2024-03-17T12:04:21;10.60;99.90
51637;DHT22;37713;53.254;6.460;2024-03-17T12:06:49;10.60;99.90
51637;DHT22;37713;53.254;6.460;2024-03-17T12:14:29;10.80;99.90
51637;DHT22;37713;53.254;6.460;2024-03-17T12:17:01;10.90;99.90
51637;DHT22;37713;53.254;6.460;2024-03-17T12:19:27;11.00;99.90
51637;DHT22;37713;53.254;6.460;2024-03-17T12:21:55;11.10;99.90
51637;DHT22;37713;53.254;6.460;2024-03-17T12:24:26;11.10;99.90
51637;DHT22;37713;53.254;6.460;2024-03-17T12:26:54;11.20;99.90
51637;DHT22;37713;53.254;6.460;2024-03-17T12:29:37;11.30;99.90
51637;DHT22;37713;53.254;6.460;2024-03-17T12:34:37;11.50;99.90
51637;DHT22;37713;53.254;6.460;2024-03-17T12:37:04;11.50;99.90
51637;DHT22;37713;53.254;6.460;2024-03-17T12:39:31;11.70;99.90
51637;DHT22;37713;53.254;6.460;2024-03-17T12:42:11;11.70;99.90
51637;DHT22;37713;53.254;6.460;2024-03-17T12:47:19;11.90;99.90
51637;DHT22;37713;53.254;6.460;2024-03-17T12:49:46;11.90;99.90
51637;DHT22;37713;53.254;6.460;2024-03-17T12:52:32;12.00;99.90
51637;DHT22;37713;53.254;6.460;2024-03-17T12:55:08;12.00;99.90
51637;DHT22;37713;53.254;6.460;2024-03-17T13:03:36;11.90;99.90
51637;DHT22;37713;53.254;6.460;2024-03-17T13:06:05;11.90;99.90
51637;DHT22;37713;53.254;6.460;2024-03-17T13:08:32;11.80;99.90
51637;DHT22;37713;53.254;6.460;2024-03-17T13:10:59;11.70;99.90
51637;DHT22;37713;53.254;6.460;2024-03-17T13:13:25;11.60;99.90
51637;DHT22;37713;53.254;6.460;2024-03-17T13:15:51;11.60;99.90
51637;DHT22;37713;53.254;6.460;2024-03-17T13:18:18;11.50;99.90
51637;DHT22;37713;53.254;6.460;2024-03-17T13:20:45;11.50;99.90
51637;DHT22;37713;53.254;6.460;2024-03-17T13:23:15;11.50;99.90
51637;DHT22;37713;53.254;6.460;2024-03-17T13:25:41;11.40;99.90
51637;DHT22;37713;53.254;6.460;2024-03-17T13:28:09;11.40;99.90
51637;DHT22;37713;53.254;6.460;2024-03-17T13:30:35;11.40;99.90
51637;DHT22;37713;53.254;6.460;2024-03-17T13:33:05;11.30;99.90
51637;DHT22;37713;53.254;6.460;2024-03-17T13:35:35;11.30;99.90
51637;DHT22;37713;53.254;6.460;2024-03-17T13:38:08;11.30;99.90
51637;DHT22;37713;53.254;6.460;2024-03-17T13:40:38;11.30;99.90
51637;DHT22;37713;53.254;6.460;2024-03-17T13:43:05;11.30;99.90
51637;DHT22;37713;53.254;6.460;2024-03-17T13:45:41;11.20;99.90
51637;DHT22;37713;53.254;6.460;2024-03-17T13:48:08;11.30;99.90
51637;DHT22;37713;53.254;6.460;2024-03-17T13:50:38;11.30;99.90
51637;DHT22;37713;53.254;6.460;2024-03-17T13:53:10;11.30;99.90
51637;DHT22;37713;53.254;6.460;2024-03-17T13:55:36;11.30;99.90
51637;DHT22;37713;53.254;6.460;2024-03-17T13:58:03;11.30;99.90
51637;DHT22;37713;53.254;6.460;2024-03-17T14:00:32;11.40;99.90
51637;DHT22;37713;53.254;6.460;2024-03-17T14:03:01;11.40;99.90
51637;DHT22;37713;53.254;6.460;2024-03-17T14:05:27;11.40;99.90
51637;DHT22;37713;53.254;6.460;2024-03-17T14:07:54;11.40;99.90
51637;DHT22;37713;53.254;6.460;2024-03-17T14:10:21;11.40;99.90
51637;DHT22;37713;53.254;6.460;2024-03-17T14:12:50;11.40;99.90
51637;DHT22;37713;53.254;6.460;2024-03-17T14:15:17;11.40;99.90
51637;DHT22;37713;53.254;6.460;2024-03-17T14:17:45;11.40;99.90
51637;DHT22;37713;53.254;6.460;2024-03-17T14:20:13;11.40;99.90
51637;DHT22;37713;53.254;6.460;2024-03-17T14:22:43;11.40;99.90
51637;DHT22;37713;53.254;6.460;2024-03-17T14:25:16;11.40;99.90
51637;DHT22;37713;53.254;6.460;2024-03-17T14:27:43;11.40;99.90
51637;DHT22;37713;53.254;6.460;2024-03-17T14:30:11;11.40;99.90
51637;DHT22;37713;53.254;6.460;2024-03-17T14:32:39;11.40;99.90
51637;DHT22;37713;53.254;6.460;2024-03-17T14:35:05;11.40;99.90
51637;DHT22;37713;53.254;6.460;2024-03-17T14:37:31;11.30;99.90
51637;DHT22;37713;53.254;6.460;2024-03-17T14:39:58;11.30;99.90
51637;DHT22;37713;53.254;6.460;2024-03-17T14:42:25;11.20;99.90
51637;DHT22;37713;53.254;6.460;2024-03-17T14:44:51;11.10;99.90
51637;DHT22;37713;53.254;6.460;2024-03-17T14:47:16;11.10;99.90
51637;DHT22;37713;53.254;6.460;2024-03-17T14:49:42;11.10;99.90
51637;DHT22;37713;53.254;6.460;2024-03-17T14:52:09;11.10;99.90
51637;DHT22;37713;53.254;6.460;2024-03-17T14:54:35;11.10;99.90
51637;DHT22;37713;53.254;6.460;2024-03-17T14:57:01;11.10;99.90
51637;DHT22;37713;53.254;6.460;2024-03-17T14:59:26;11.10;99.90
51637;DHT22;37713;53.254;6.460;2024-03-17T15:01:52;11.00;99.90
51637;DHT22;37713;53.254;6.460;2024-03-17T15:04:18;11.00;99.90
51637;DHT22;37713;53.254;6.460;2024-03-17T15:06:45;11.00;99.90
51637;DHT22;37713;53.254;6.460;2024-03-17T15:09:11;11.00;99.90
51637;DHT22;37713;53.254;6.460;2024-03-17T15:11:45;10.90;99.90
51637;DHT22;37713;53.254;6.460;2024-03-17T15:14:12;10.90;99.90
51637;DHT22;37713;53.254;6.460;2024-03-17T15:16:38;10.90;99.90
51637;DHT22;37713;53.254;6.460;2024-03-17T15:19:07;10.90;99.90
51637;DHT22;37713;53.254;6.460;2024-03-17T15:21:33;10.90;99.90
51637;DHT22;37713;53.254;6.460;2024-03-17T15:24:00;10.90;99.90
51637;DHT22;37713;53.254;6.460;2024-03-17T15:26:28;10.80;99.90
51637;DHT22;37713;53.254;6.460;2024-03-17T15:28:54;10.80;99.90
51637;DHT22;37713;53.254;6.460;2024-03-17T15:31:21;10.80;99.90
51637;DHT22;37713;53.254;6.460;2024-03-17T15:33:50;10.80;99.90
51637;DHT22;37713;53.254;6.460;2024-03-17T15:36:16;10.70;99.90
51637;DHT22;37713;53.254;6.460;2024-03-17T15:38:42;10.70;99.90
51637;DHT22;37713;53.254;6.460;2024-03-17T15:41:10;10.70;99.90
51637;DHT22;37713;53.254;6.460;2024-03-17T15:43:39;10.70;99.90
51637;DHT22;37713;53.254;6.460;2024-03-17T15:46:16;10.60;99.90
51637;DHT22;37713;53.254;6.460;2024-03-17T15:48:43;10.70;99.90
51637;DHT22;37713;53.254;6.460;2024-03-17T15:51:09;10.70;99.90
51637;DHT22;37713;53.254;6.460;2024-03-17T15:53:35;10.70;99.90
51637;DHT22;37713;53.254;6.460;2024-03-17T15:56:02;10.60;99.90
51637;DHT22;37713;53.254;6.460;2024-03-17T15:58:30;10.60;99.90
51637;DHT22;37713;53.254;6.460;2024-03-17T16:00:56;10.60;99.90
51637;DHT22;37713;53.254;6.460;2024-03-17T16:03:30;10.60;99.90
51637;DHT22;37713;53.254;6.460;2024-03-17T16:05:59;10.60;99.90
51637;DHT22;37713;53.254;6.460;2024-03-17T16:08:28;10.60;99.90
51637;DHT22;37713;53.254;6.460;2024-03-17T16:10:59;10.60;99.90
51637;DHT22;37713;53.254;6.460;2024-03-17T16:13:26;10.60;99.90
51637;DHT22;37713;53.254;6.460;2024-03-17T16:15:56;10.60;99.90
51637;DHT22;37713;53.254;6.460;2024-03-17T16:18:23;10.60;99.90